Alpine, Utah
Current Conditions -  °F | °C
As of 7:51 PM on Friday 24 Oct 2014 (Local Time) from KPVU Reporting Station
Clear Clear  
Wind Chill: 64°   Ceiling: Unl
Heat Index: 64°   Visibility: 15mi
Dew Point: 34°   Wind: 6mph
Humidity: 32%   Direction: 60°ENE
Pressure: 30.12"   Gusts: NA
Location:  40.45°N, 111.78°W
Report Text: KPVU 250151Z 06005KT 15SM SKC 18/01 A3012
Loading
Personal Weather Stations






























Interactive Weather Map
Tropical Storm Tracking
New forecast layout! Learn more

10-Day Weather Forecast

Advertisements
Track Severe Weather on mobile